Time;durP1;ratioP1;P1;durP2;ratioP2;P2;SDS_P1;SDS_P2;PMS_P1;PMS_P2;Temp;Humidity;BMP_temperature;BMP_pressure;BME280_temperature;BME280_humidity;BME280_pressure;Samples;Min_cycle;Max_cycle;Signal;HPM_P1;HPM_P2
2022/07/30 00:00:41;;;;;;;;;;;;;;;21.29;31.20;97923.56;4861750;29;1000;-77
2022/07/30 00:03:07;;;;;;;;;;;;;;;21.53;31.08;97921.31;4861442;29;922;-79
2022/07/30 00:05:33;;;;;;;;;;;;;;;21.55;30.76;97920.88;4861787;29;998;-79
2022/07/30 00:07:58;;;;;;;;;;;;;;;21.49;30.85;97911.34;4860798;29;1340;-78
2022/07/30 00:10:23;;;;;;;;;;;;;;;21.44;30.86;97920.38;4860761;29;1907;-79
2022/07/30 00:12:49;;;;;;;;;;;;;;;21.26;31.24;97915.97;4861671;29;982;-79
2022/07/30 00:15:15;;;;;;;;;;;;;;;21.48;30.69;97910.53;4861631;29;977;-79
2022/07/30 00:17:40;;;;;;;;;;;;;;;21.62;30.66;97917.06;4863032;29;967;-79
2022/07/30 00:20:06;;;;;;;;;;;;;;;21.42;30.88;97918.00;4863924;29;902;-79
2022/07/30 00:22:31;;;;;;;;;;;;;;;21.45;30.96;97904.97;4863416;29;911;-79
2022/07/30 00:24:57;;;;;;;;;;;;;;;21.47;30.88;97902.50;4869655;29;1315;-79
2022/07/30 00:27:22;;;;;;;;;;;;;;;21.45;30.86;97904.97;4882253;29;882;-78
2022/07/30 00:29:48;;;;;;;;;;;;;;;21.46;30.82;97906.59;4880556;29;1992;-79
2022/07/30 00:32:13;;;;;;;;;;;;;;;21.54;30.79;97907.97;4865429;29;1236;-79
2022/07/30 00:34:39;;;;;;;;;;;;;;;21.45;30.91;97902.16;4861049;29;1203;-79
2022/07/30 00:37:04;;;;;;;;;;;;;;;21.41;31.18;97899.44;4846055;29;1264;-79
2022/07/30 00:39:30;;;;;;;;;;;;;;;21.50;30.91;97902.41;4861102;29;982;-79
2022/07/30 00:41:56;;;;;;;;;;;;;;;21.61;30.86;97907.78;4845612;29;989;-78
2022/07/30 00:44:21;;;;;;;;;;;;;;;21.42;31.13;97905.88;4862495;29;1456;-79
2022/07/30 00:46:46;;;;;;;;;;;;;;;21.38;31.50;97908.81;4864715;29;1042;-78
2022/07/30 00:49:12;;;;;;;;;;;;;;;21.38;31.32;97910.84;4864902;29;1903;-79
2022/07/30 00:51:37;;;;;;;;;;;;;;;21.58;30.99;97897.34;4833654;29;965;-80
2022/07/30 00:54:03;;;;;;;;;;;;;;;21.50;31.57;97895.94;4849249;29;1238;-78
2022/07/30 00:56:28;;;;;;;;;;;;;;;21.51;31.27;97898.34;4846059;29;1441;-78
2022/07/30 00:58:53;;;;;;;;;;;;;;;21.25;31.83;97894.56;4844727;29;1511;-79
2022/07/30 01:01:19;;;;;;;;;;;;;;;21.41;31.49;97898.63;4846101;29;1106;-79
2022/07/30 01:03:45;;;;;;;;;;;;;;;21.41;31.52;97893.78;4815495;29;966;-79
2022/07/30 01:06:10;;;;;;;;;;;;;;;21.59;31.45;97884.75;4815586;29;953;-79
2022/07/30 01:08:36;;;;;;;;;;;;;;;21.72;30.98;97891.28;4846176;29;1006;-79
2022/07/30 01:11:01;;;;;;;;;;;;;;;21.23;32.07;97885.72;4845962;29;1919;-78
2022/07/30 01:13:27;;;;;;;;;;;;;;;21.40;31.74;97880.03;4844998;29;1492;-78
2022/07/30 01:15:52;;;;;;;;;;;;;;;21.46;31.63;97883.94;4867717;29;1278;-79
2022/07/30 01:18:18;;;;;;;;;;;;;;;21.44;31.88;97875.88;4882961;29;1017;-79
2022/07/30 01:20:58;;;;;;;;;;;;;;;21.66;31.43;97881.75;4867271;29;1150;-78
2022/07/30 01:23:24;;;;;;;;;;;;;;;21.69;31.46;97886.50;4867077;29;908;-78
2022/07/30 01:25:51;;;;;;;;;;;;;;;21.36;32.02;97879.38;4867564;29;925;-79
2022/07/30 01:28:19;;;;;;;;;;;;;;;21.32;32.39;97885.91;4835349;29;1536;-79
2022/07/30 01:30:44;;;;;;;;;;;;;;;21.44;32.09;97875.88;4848506;29;1911;-78
2022/07/30 01:33:11;;;;;;;;;;;;;;;21.50;31.67;97879.78;4848924;29;994;-79
2022/07/30 01:35:36;;;;;;;;;;;;;;;21.52;31.85;97876.47;4830028;29;1063;-78
2022/07/30 01:38:03;;;;;;;;;;;;;;;21.25;32.26;97871.94;4860924;29;1128;-79
2022/07/30 01:40:28;;;;;;;;;;;;;;;21.80;31.30;97875.66;4860649;29;1147;-78
2022/07/30 01:42:57;;;;;;;;;;;;;;;21.55;31.81;97878.41;4844823;29;1504;-78
2022/07/30 01:45:22;;;;;;;;;;;;;;;21.48;31.98;97865.25;4830299;29;1229;-79
2022/07/30 01:47:49;;;;;;;;;;;;;;;21.49;31.86;97874.53;4797920;29;1380;-79
2022/07/30 01:50:14;;;;;;;;;;;;;;;21.57;31.52;97873.91;4823558;29;1907;-78
2022/07/30 01:52:42;;;;;;;;;;;;;;;21.55;31.70;97875.56;4823794;29;1041;-78
2022/07/30 01:55:09;;;;;;;;;;;;;;;21.62;31.62;97881.06;4822906;29;1167;-79
2022/07/30 01:57:35;;;;;;;;;;;;;;;21.74;31.28;97877.44;4823889;29;1648;-77
2022/07/30 02:00:01;;;;;;;;;;;;;;;21.64;31.98;97872.88;4823129;29;1416;-79
2022/07/30 02:02:30;;;;;;;;;;;;;;;21.40;32.06;97874.38;4808163;29;1344;-79
2022/07/30 02:04:55;;;;;;;;;;;;;;;21.53;31.81;97878.84;4808158;29;1262;-78
2022/07/30 02:07:31;;;;;;;;;;;;;;;21.67;31.72;97872.00;4793695;29;1072;-78
2022/07/30 02:10:16;;;;;;;;;;;;;;;21.58;31.79;97869.03;4790248;29;1911;-79
2022/07/30 02:12:48;;;;;;;;;;;;;;;21.50;32.22;97859.13;4775827;29;1435;-79
2022/07/30 02:15:24;;;;;;;;;;;;;;;21.72;31.57;97874.28;4792803;29;1540;-79
2022/07/30 02:18:08;;;;;;;;;;;;;;;21.56;31.95;97874.34;4808340;29;907;-79
2022/07/30 02:20:34;;;;;;;;;;;;;;;21.53;32.16;97872.41;4808296;29;1240;-79
2022/07/30 02:23:04;;;;;;;;;;;;;;;21.52;32.01;97865.16;4822987;29;1848;-79
2022/07/30 02:25:31;;;;;;;;;;;;;;;21.55;31.75;97870.72;4787434;30;1184;-78
2022/07/30 02:27:57;;;;;;;;;;;;;;;21.64;31.67;97867.22;4772496;30;995;-79
2022/07/30 02:30:26;;;;;;;;;;;;;;;21.46;31.79;97869.78;4785674;30;1916;-79
2022/07/30 02:32:53;;;;;;;;;;;;;;;21.48;31.76;97872.94;4771911;30;974;-79
2022/07/30 02:35:19;;;;;;;;;;;;;;;21.56;31.92;97865.88;4791242;29;1065;-79
2022/07/30 02:37:45;;;;;;;;;;;;;;;21.62;31.56;97864.06;4790060;30;950;-79
2022/07/30 02:40:13;;;;;;;;;;;;;;;21.51;31.69;97869.25;4803960;29;1456;-78
2022/07/30 02:42:39;;;;;;;;;;;;;;;21.33;31.94;97869.72;4804673;29;981;-79
2022/07/30 02:45:05;;;;;;;;;;;;;;;21.41;32.04;97871.13;4775038;30;1032;-79
2022/07/30 02:47:30;;;;;;;;;;;;;;;21.60;31.49;97872.19;4770984;30;1543;-79
2022/07/30 02:50:01;;;;;;;;;;;;;;;21.78;31.15;97866.03;4753798;30;2002;-78
2022/07/30 02:52:26;;;;;;;;;;;;;;;21.57;31.54;97856.91;4718616;30;1179;-76
2022/07/30 02:54:52;;;;;;;;;;;;;;;21.40;31.90;97858.22;4699122;30;1465;-79
2022/07/30 02:57:17;;;;;;;;;;;;;;;21.59;31.73;97859.28;4715370;30;1462;-78
2022/07/30 02:59:43;;;;;;;;;;;;;;;21.62;31.72;97852.72;4718663;30;1087;-79
2022/07/30 03:02:08;;;;;;;;;;;;;;;21.44;31.90;97847.56;4718557;30;1032;-79
2022/07/30 03:04:34;;;;;;;;;;;;;;;21.66;31.56;97853.44;4735762;30;1221;-79
2022/07/30 03:07:01;;;;;;;;;;;;;;;21.33;32.51;97856.38;4750413;30;1314;-78
2022/07/30 03:09:26;;;;;;;;;;;;;;;21.52;31.95;97859.50;4700840;30;1967;-79
2022/07/30 03:11:52;;;;;;;;;;;;;;;21.59;32.13;97853.63;4703999;30;1659;-78
2022/07/30 03:14:18;;;;;;;;;;;;;;;21.58;31.76;97857.69;4732591;30;1467;-78
2022/07/30 03:16:45;;;;;;;;;;;;;;;21.58;32.34;97852.03;4718013;30;1427;-78
2022/07/30 03:19:10;;;;;;;;;;;;;;;21.56;31.95;97851.72;4718447;30;1039;-79
2022/07/30 03:21:37;;;;;;;;;;;;;;;21.56;32.07;97863.03;4683670;30;1018;-79
2022/07/30 03:24:03;;;;;;;;;;;;;;;21.43;32.13;97862.97;4660706;30;1037;-79
2022/07/30 03:26:30;;;;;;;;;;;;;;;21.65;31.91;97851.81;4682657;30;1446;-79
2022/07/30 03:28:55;;;;;;;;;;;;;;;21.53;32.08;97861.09;4699981;30;1904;-78
2022/07/30 03:31:20;;;;;;;;;;;;;;;21.40;32.42;97851.75;4704714;30;1204;-79
2022/07/30 03:33:46;;;;;;;;;;;;;;;21.50;32.23;97862.78;4718454;30;1154;-78
2022/07/30 03:36:11;;;;;;;;;;;;;;;21.42;32.51;97863.44;4717945;30;1163;-78
2022/07/30 03:38:37;;;;;;;;;;;;;;;21.51;32.30;97857.91;4705187;30;951;-79
2022/07/30 03:41:03;;;;;;;;;;;;;;;21.64;32.01;97867.22;4647022;30;1071;-79
2022/07/30 03:43:29;;;;;;;;;;;;;;;21.54;32.20;97868.31;4685552;30;1486;-79
2022/07/30 03:45:54;;;;;;;;;;;;;;;21.68;31.90;97867.94;4732386;30;1244;-79
2022/07/30 03:48:22;;;;;;;;;;;;;;;21.43;32.45;97873.50;4685711;30;1657;-78
2022/07/30 03:50:47;;;;;;;;;;;;;;;21.77;31.63;97868.06;4683191;30;1983;-78
2022/07/30 03:53:13;;;;;;;;;;;;;;;21.47;32.15;97869.34;4700379;30;1269;-79
2022/07/30 03:56:17;;;;;;;;;;;;;;;21.23;32.33;97874.41;4693097;30;1483;-79
2022/07/30 03:58:59;;;;;;;;;;;;;;;21.46;32.19;97872.63;4692829;30;1545;-78
2022/07/30 04:01:25;;;;;;;;;;;;;;;21.52;31.98;97871.63;4663971;30;1183;-79
2022/07/30 04:03:54;;;;;;;;;;;;;;;21.62;31.77;97871.75;4639633;30;1833;-79
2022/07/30 04:06:21;;;;;;;;;;;;;;;21.58;32.04;97871.84;4632213;30;1635;-79
2022/07/30 04:08:46;;;;;;;;;;;;;;;21.46;32.30;97872.63;4640861;30;1053;-79
2022/07/30 04:11:12;;;;;;;;;;;;;;;21.78;31.81;97866.03;4631325;30;1974;-78
2022/07/30 04:13:57;;;;;;;;;;;;;;;21.77;31.75;97865.25;4666013;30;1214;-78
2022/07/30 04:16:29;;;;;;;;;;;;;;;21.79;31.68;97873.28;4656811;30;1370;-78
2022/07/30 04:18:55;;;;;;;;;;;;;;;21.81;31.74;97868.75;4647966;30;1245;-79
2022/07/30 04:21:21;;;;;;;;;;;;;;;21.43;32.44;97868.63;4668098;30;1199;-78
2022/07/30 04:23:47;;;;;;;;;;;;;;;21.59;32.44;97867.78;4666368;30;980;-79
2022/07/30 04:26:13;;;;;;;;;;;;;;;21.63;32.12;97862.81;4671419;30;1308;-79
2022/07/30 04:28:38;;;;;;;;;;;;;;;21.49;32.59;97854.72;4671723;30;1133;-79
2022/07/30 04:31:04;;;;;;;;;;;;;;;21.71;31.77;97861.38;4671337;30;1912;-79
2022/07/30 04:33:29;;;;;;;;;;;;;;;21.68;31.85;97848.09;4718040;30;1199;-79
2022/07/30 04:36:08;;;;;;;;;;;;;;;21.47;32.26;97860.06;4723189;30;1215;-79
2022/07/30 04:38:36;;;;;;;;;;;;;;;21.49;32.75;97860.38;4698071;30;1304;-79
2022/07/30 04:41:02;;;;;;;;;;;;;;;21.50;32.44;97861.97;4740756;30;1119;-79
2022/07/30 04:43:35;;;;;;;;;;;;;;;21.65;31.96;97857.47;4740583;30;1301;-79
2022/07/30 04:46:01;;;;;;;;;;;;;;;21.58;32.00;97869.81;4705742;30;1318;-79
2022/07/30 04:48:27;;;;;;;;;;;;;;;21.77;32.05;97868.06;4691458;30;1256;-78
2022/07/30 04:51:05;;;;;;;;;;;;;;;21.62;32.26;97866.91;4695063;30;1929;-78
2022/07/30 04:53:32;;;;;;;;;;;;;;;21.58;32.14;97857.69;4709067;30;1180;-79
2022/07/30 04:56:00;;;;;;;;;;;;;;;21.61;32.17;97868.16;4740911;30;1142;-79
2022/07/30 04:58:27;;;;;;;;;;;;;;;21.44;32.93;97866.59;4758280;30;1298;-78
2022/07/30 05:00:53;;;;;;;;;;;;;;;21.43;32.93;97865.00;4743585;30;1086;-78
2022/07/30 05:03:23;;;;;;;;;;;;;;;21.42;32.76;97867.03;4747704;30;1089;-78
2022/07/30 05:05:51;;;;;;;;;;;;;;;21.51;32.83;97858.72;4758516;30;1253;-79
2022/07/30 05:08:16;;;;;;;;;;;;;;;21.34;32.92;97859.97;4793915;30;1275;-78
2022/07/30 05:10:42;;;;;;;;;;;;;;;21.52;32.55;97865.16;4775927;30;2002;-78
2022/07/30 05:13:12;;;;;;;;;;;;;;;21.53;32.56;97866.75;4761358;30;1236;-79
2022/07/30 05:15:39;;;;;;;;;;;;;;;21.46;32.61;97872.63;4775011;30;1213;-78
2022/07/30 05:18:06;;;;;;;;;;;;;;;21.49;32.57;97868.88;4759107;30;1113;-79
2022/07/30 05:20:35;;;;;;;;;;;;;;;21.54;32.82;97874.00;4758015;30;1202;-76
2022/07/30 05:23:06;;;;;;;;;;;;;;;21.43;32.81;97867.84;4776112;30;1249;-79
2022/07/30 05:25:32;;;;;;;;;;;;;;;21.42;32.65;97860.59;4776083;30;1408;-79
2022/07/30 05:28:11;;;;;;;;;;;;;;;21.47;32.64;97868.53;4757654;30;1441;-78
2022/07/30 05:30:36;;;;;;;;;;;;;;;21.48;32.83;97870.13;4755593;30;1916;-78
2022/07/30 05:33:02;;;;;;;;;;;;;;;21.51;32.69;97886.22;4734390;30;1444;-79
2022/07/30 05:35:27;;;;;;;;;;;;;;;21.60;32.52;97883.50;4734678;30;1240;-77
2022/07/30 05:37:54;;;;;;;;;;;;;;;21.66;32.13;97881.75;4752244;30;1268;-79
2022/07/30 05:40:21;;;;;;;;;;;;;;;21.45;32.51;97882.31;4744482;30;1310;-79
2022/07/30 05:43:15;;;;;;;;;;;;;;;21.39;32.84;97878.47;4719903;30;1418;-78
2022/07/30 05:45:40;;;;;;;;;;;;;;;21.56;32.13;97877.97;4744124;30;1142;-78
2022/07/30 05:48:07;;;;;;;;;;;;;;;21.64;32.14;97878.56;4752242;30;1160;-78
2022/07/30 05:50:32;;;;;;;;;;;;;;;21.66;32.08;97881.75;4752353;30;1991;-78
2022/07/30 05:52:58;;;;;;;;;;;;;;;21.63;32.01;97882.63;4744761;30;1275;-78
2022/07/30 05:55:52;;;;;;;;;;;;;;;21.74;31.99;97879.50;4755028;30;1037;-78
2022/07/30 05:58:40;;;;;;;;;;;;;;;21.71;31.93;97883.22;4761578;30;964;-79
2022/07/30 06:01:06;;;;;;;;;;;;;;;21.67;31.83;97877.66;4772838;30;1038;-78
2022/07/30 06:03:33;;;;;;;;;;;;;;;21.88;31.46;97881.13;4772216;30;1224;-79
2022/07/30 06:06:24;;;;;;;;;;;;;;;21.74;31.91;97871.78;4763953;30;1064;-79
2022/07/30 06:08:50;;;;;;;;;;;;;;;21.59;32.06;97877.06;4772585;30;1263;-79
2022/07/30 06:11:16;;;;;;;;;;;;;;;21.65;32.10;97874.47;4772335;30;1976;-79
2022/07/30 06:13:43;;;;;;;;;;;;;;;21.61;32.16;97878.69;4772130;30;1063;-78
2022/07/30 06:16:08;;;;;;;;;;;;;;;21.67;31.59;97880.50;4772553;30;1496;-79
2022/07/30 06:18:34;;;;;;;;;;;;;;;21.67;31.97;97876.88;4772321;30;1129;-80
2022/07/30 06:21:01;;;;;;;;;;;;;;;21.62;31.81;97872.56;4772705;30;1048;-79
2022/07/30 06:24:02;;;;;;;;;;;;;;;21.48;32.21;97876.56;4736688;30;929;-80
2022/07/30 06:26:38;;;;;;;;;;;;;;;21.61;31.90;97870.97;4736720;30;1298;-80
2022/07/30 06:29:04;;;;;;;;;;;;;;;21.55;31.93;97872.75;4719236;30;1900;-79
2022/07/30 06:31:31;;;;;;;;;;;;;;;21.63;32.05;97876.97;4716161;30;1123;-80
2022/07/30 06:33:56;;;;;;;;;;;;;;;21.85;31.56;97872.25;4698860;30;1208;-78
2022/07/30 06:36:24;;;;;;;;;;;;;;;21.65;31.82;97874.47;4716189;30;1176;-80
2022/07/30 06:39:03;;;;;;;;;;;;;;;21.49;32.27;97872.50;4713342;30;1261;-79
2022/07/30 06:41:44;;;;;;;;;;;;;;;21.82;31.61;97870.34;4696721;30;1222;-80
2022/07/30 06:44:12;;;;;;;;;;;;;;;21.58;32.27;97863.38;4717270;30;1189;-80
2022/07/30 06:46:58;;;;;;;;;;;;;;;21.46;32.43;97855.63;4733592;30;1049;-79
2022/07/30 06:49:24;;;;;;;;;;;;;;;21.58;32.30;97857.69;4754095;30;1903;-80
2022/07/30 06:51:50;;;;;;;;;;;;;;;21.51;32.14;97860.75;4739325;30;1090;-79
2022/07/30 06:54:15;;;;;;;;;;;;;;;21.57;32.41;97861.78;4736600;30;1251;-79
2022/07/30 06:57:10;;;;;;;;;;;;;;;21.54;32.16;97857.00;4696488;30;1006;-79
2022/07/30 06:59:36;;;;;;;;;;;;;;;21.71;32.24;97861.38;4684115;30;1413;-79
2022/07/30 07:02:13;;;;;;;;;;;;;;;21.46;32.54;97852.81;4666951;30;1305;-79
2022/07/30 07:05:02;;;;;;;;;;;;;;;21.58;32.32;97852.03;4667033;30;1363;-79
2022/07/30 07:07:27;;;;;;;;;;;;;;;21.55;32.40;97864.25;4667055;30;1302;-80
2022/07/30 07:09:53;;;;;;;;;;;;;;;21.61;32.47;97861.69;4683836;30;1900;-79
2022/07/30 07:12:41;;;;;;;;;;;;;;;21.73;32.08;97858.88;4683895;30;1019;-79
2022/07/30 07:15:07;;;;;;;;;;;;;;;21.76;32.05;97869.31;4683653;30;1088;-79
2022/07/30 07:17:33;;;;;;;;;;;;;;;21.87;31.74;97865.38;4683721;30;1700;-80
2022/07/30 07:20:01;;;;;;;;;;;;;;;21.71;32.26;97863.38;4683770;30;1111;-79
2022/07/30 07:22:29;;;;;;;;;;;;;;;21.59;32.26;97867.78;4700711;30;1293;-80
2022/07/30 07:24:55;;;;;;;;;;;;;;;21.63;32.16;97865.66;4701108;30;1161;-80
2022/07/30 07:27:24;;;;;;;;;;;;;;;21.78;32.17;97854.69;4680581;30;1337;-79
2022/07/30 07:29:54;;;;;;;;;;;;;;;21.63;32.09;97865.66;4680642;30;1963;-79
2022/07/30 07:32:20;;;;;;;;;;;;;;;21.57;32.46;97859.75;4713452;30;1007;-80
2022/07/30 07:34:46;;;;;;;;;;;;;;;21.62;32.20;97863.28;4731370;30;1170;-80
2022/07/30 07:37:14;;;;;;;;;;;;;;;21.90;31.75;97861.63;4750008;30;1542;-79
2022/07/30 07:39:39;;;;;;;;;;;;;;;21.73;31.88;97858.88;4753222;30;1098;-79
2022/07/30 07:42:05;;;;;;;;;;;;;;;21.67;32.14;97866.34;4752970;30;1342;-80
2022/07/30 07:44:31;;;;;;;;;;;;;;;21.47;32.48;97851.56;4753417;30;1446;-79
2022/07/30 07:46:56;;;;;;;;;;;;;;;21.67;32.06;97863.50;4723272;30;1745;-79
2022/07/30 07:49:26;;;;;;;;;;;;;;;21.83;32.03;97854.94;4735015;30;1916;-80
2022/07/30 07:51:51;;;;;;;;;;;;;;;21.75;32.00;97856.38;4732300;30;1141;-78
2022/07/30 07:54:18;;;;;;;;;;;;;;;21.82;31.96;97856.19;4741069;30;1310;-79
2022/07/30 07:56:44;;;;;;;;;;;;;;;21.74;31.93;97849.13;4750547;30;1078;-80
2022/07/30 07:59:11;;;;;;;;;;;;;;;21.77;32.09;97851.06;4750002;30;1185;-79
2022/07/30 08:01:37;;;;;;;;;;;;;;;21.88;31.70;97847.91;4735355;30;1209;-78
2022/07/30 08:04:18;;;;;;;;;;;;;;;21.81;31.80;97848.94;4735018;30;966;-79
2022/07/30 08:07:01;;;;;;;;;;;;;;;21.66;32.23;97839.28;4735358;30;1022;-79
2022/07/30 08:09:39;;;;;;;;;;;;;;;21.74;32.18;97837.81;4735251;30;1908;-79
2022/07/30 08:12:11;;;;;;;;;;;;;;;21.71;32.32;97841.56;4743774;30;1246;-79
2022/07/30 08:15:06;;;;;;;;;;;;;;;21.66;32.21;97833.63;4752585;30;1028;-79
2022/07/30 08:17:50;;;;;;;;;;;;;;;21.82;31.97;97833.53;4738950;30;928;-79
2022/07/30 08:20:31;;;;;;;;;;;;;;;21.88;32.05;97838.63;4719954;30;1375;-79
2022/07/30 08:22:56;;;;;;;;;;;;;;;21.71;32.29;97838.72;4717737;30;1033;-78
2022/07/30 08:25:24;;;;;;;;;;;;;;;21.70;32.12;97831.44;4728780;30;1249;-80
2022/07/30 08:27:50;;;;;;;;;;;;;;;21.71;32.31;97838.72;4734786;30;1517;-80
2022/07/30 08:30:16;;;;;;;;;;;;;;;21.55;32.74;97835.94;4700486;30;1912;-80
2022/07/30 08:32:42;;;;;;;;;;;;;;;21.64;32.67;97838.91;4699937;30;1361;-78
2022/07/30 08:35:08;;;;;;;;;;;;;;;21.56;32.47;97837.53;4697222;30;1185;-80
2022/07/30 08:37:33;;;;;;;;;;;;;;;21.55;32.56;97838.78;4699978;30;1054;-79
2022/07/30 08:40:00;;;;;;;;;;;;;;;21.59;32.66;97830.97;4717317;30;1225;-78
2022/07/30 08:42:25;;;;;;;;;;;;;;;21.77;32.47;97828.41;4703052;30;1150;-80
2022/07/30 08:44:51;;;;;;;;;;;;;;;21.82;32.08;97822.19;4710742;30;977;-80
2022/07/30 08:47:17;;;;;;;;;;;;;;;21.84;32.23;97819.69;4702810;30;1267;-79
2022/07/30 08:50:08;;;;;;;;;;;;;;;21.77;32.13;97819.91;4716993;30;1987;-79
2022/07/30 08:52:39;;;;;;;;;;;;;;;21.76;32.44;97821.19;4700904;30;1195;-80
2022/07/30 08:55:06;;;;;;;;;;;;;;;21.89;32.05;97820.38;4700308;30;1728;-80
2022/07/30 08:57:34;;;;;;;;;;;;;;;21.87;32.16;97811.56;4721778;30;1739;-80
2022/07/30 09:00:01;;;;;;;;;;;;;;;21.63;32.44;97813.88;4734348;30;1288;-79
2022/07/30 09:02:27;;;;;;;;;;;;;;;21.71;32.34;97812.41;4752214;30;1169;-78
2022/07/30 09:04:59;;;;;;;;;;;;;;;21.81;32.31;97808.47;4754145;30;1068;-79
2022/07/30 09:07:24;;;;;;;;;;;;;;;21.81;32.34;97814.94;4738682;30;1087;-80
2022/07/30 09:09:49;;;;;;;;;;;;;;;21.88;32.07;97807.47;4755419;30;1912;-80
2022/07/30 09:12:30;;;;;;;;;;;;;;;21.78;32.62;97810.19;4755468;30;1127;-79
2022/07/30 09:15:03;;;;;;;;;;;;;;;21.77;32.34;97802.94;4755624;30;1173;-78
2022/07/30 09:17:28;;;;;;;;;;;;;;;21.76;32.57;97812.69;4773362;30;1129;-80
2022/07/30 09:20:03;;;;;;;;;;;;;;;21.96;32.12;97820.16;4765387;30;1049;-80
2022/07/30 09:23:01;;;;;;;;;;;;;;;21.88;32.39;97818.81;4755648;30;1113;-79
2022/07/30 09:25:42;;;;;;;;;;;;;;;21.75;32.61;97807.44;4773362;30;1050;-79
2022/07/30 09:28:30;;;;;;;;;;;;;;;21.83;32.25;97814.50;4755373;30;992;-79
2022/07/30 09:31:15;;;;;;;;;;;;;;;21.76;32.53;97812.69;4734591;30;1912;-79
2022/07/30 09:33:59;;;;;;;;;;;;;;;21.72;32.36;97800.66;4737407;30;1070;-79
2022/07/30 09:36:43;;;;;;;;;;;;;;;21.49;33.06;97798.91;4719683;30;1029;-79
2022/07/30 09:39:30;;;;;;;;;;;;;;;21.58;32.71;97796.19;4728925;30;984;-79
2022/07/30 09:42:17;;;;;;;;;;;;;;;21.82;32.41;97796.72;4715091;30;961;-79
2022/07/30 09:44:43;;;;;;;;;;;;;;;21.69;32.60;97801.53;4717216;30;1184;-78
2022/07/30 09:47:10;;;;;;;;;;;;;;;21.73;32.78;97805.06;4717750;30;1343;-80
2022/07/30 09:49:40;;;;;;;;;;;;;;;21.87;32.29;97801.03;4725211;30;1908;-80
2022/07/30 09:52:06;;;;;;;;;;;;;;;21.98;32.50;97795.03;4719859;30;989;-80
2022/07/30 09:54:44;;;;;;;;;;;;;;;22.00;32.36;97798.19;4751159;30;1145;-80
2022/07/30 09:57:10;;;;;;;;;;;;;;;21.85;32.49;97798.63;4737319;30;1335;-78
2022/07/30 09:59:35;;;;;;;;;;;;;;;21.83;32.83;97789.00;4737670;30;1321;-79
2022/07/30 10:02:03;;;;;;;;;;;;;;;21.80;32.64;97799.19;4756967;30;1166;-79
2022/07/30 10:04:47;;;;;;;;;;;;;;;21.90;32.58;97799.31;4772577;30;967;-80
2022/07/30 10:07:18;;;;;;;;;;;;;;;21.94;32.26;97791.50;4772518;30;1614;-80
2022/07/30 10:09:45;;;;;;;;;;;;;;;21.94;32.24;97786.63;4772344;30;1908;-80
2022/07/30 10:12:11;;;;;;;;;;;;;;;22.09;32.27;97786.97;4754391;30;1145;-80
2022/07/30 10:14:39;;;;;;;;;;;;;;;21.75;32.93;97805.41;4741700;30;2136;-79
2022/07/30 10:17:05;;;;;;;;;;;;;;;21.79;32.55;97800.44;4735913;30;1306;-80
2022/07/30 10:19:32;;;;;;;;;;;;;;;21.75;32.72;97791.25;4737198;30;1546;-80
2022/07/30 10:22:16;;;;;;;;;;;;;;;21.70;32.93;97786.13;4736793;30;1022;-80
2022/07/30 10:25:01;;;;;;;;;;;;;;;21.70;32.71;97786.13;4754373;30;1224;-80
2022/07/30 10:27:48;;;;;;;;;;;;;;;21.84;32.76;97780.03;4713670;30;953;-79
2022/07/30 10:30:32;;;;;;;;;;;;;;;21.95;32.43;97787.41;4716079;30;1915;-79
2022/07/30 10:32:58;;;;;;;;;;;;;;;21.77;32.60;97774.59;4724455;30;1048;-80
2022/07/30 10:35:23;;;;;;;;;;;;;;;22.00;32.27;97784.00;4736126;30;1082;-78
2022/07/30 10:37:49;;;;;;;;;;;;;;;21.90;32.72;97780.28;4751024;30;1606;-80
2022/07/30 10:40:18;;;;;;;;;;;;;;;22.04;32.27;97776.19;4731798;30;1443;-80
2022/07/30 10:42:43;;;;;;;;;;;;;;;21.97;32.30;97765.09;4719118;30;1019;-79
2022/07/30 10:45:18;;;;;;;;;;;;;;;21.89;32.83;97758.06;4724318;30;948;-80
2022/07/30 10:47:45;;;;;;;;;;;;;;;22.17;32.13;97756.38;4742512;30;971;-80
2022/07/30 10:50:12;;;;;;;;;;;;;;;21.88;32.74;97762.16;4753906;30;1915;-79
2022/07/30 10:52:57;;;;;;;;;;;;;;;22.02;32.50;97756.84;4718723;30;1080;-79
2022/07/30 10:55:22;;;;;;;;;;;;;;;21.99;32.45;97751.28;4718426;30;1030;-78
2022/07/30 10:57:57;;;;;;;;;;;;;;;22.10;32.34;97746.03;4726666;30;918;-80
2022/07/30 11:00:22;;;;;;;;;;;;;;;22.07;32.38;97741.28;4753758;30;976;-80
2022/07/30 11:03:06;;;;;;;;;;;;;;;22.00;32.36;97744.34;4767200;30;1026;-79
2022/07/30 11:05:32;;;;;;;;;;;;;;;21.95;32.62;97747.75;4771358;30;1194;-80
2022/07/30 11:08:17;;;;;;;;;;;;;;;22.00;32.62;97741.53;4771232;30;1094;-80
2022/07/30 11:10:43;;;;;;;;;;;;;;;22.02;32.61;97744.69;4753447;30;1912;-77
2022/07/30 11:13:09;;;;;;;;;;;;;;;22.00;32.48;97753.63;4754022;30;977;-79
2022/07/30 11:15:54;;;;;;;;;;;;;;;22.22;32.11;97742.44;4746584;30;2076;-79
2022/07/30 11:18:20;;;;;;;;;;;;;;;22.07;32.29;97747.75;4753289;30;1108;-79
2022/07/30 11:21:04;;;;;;;;;;;;;;;22.03;32.75;97737.78;4759502;30;981;-80
2022/07/30 11:23:36;;;;;;;;;;;;;;;22.14;32.25;97743.13;4779253;30;991;-80
2022/07/30 11:26:01;;;;;;;;;;;;;;;22.13;32.69;97733.06;4795514;29;958;-79
2022/07/30 11:28:33;;;;;;;;;;;;;;;22.08;32.77;97745.72;4807061;29;1022;-79
2022/07/30 11:30:58;;;;;;;;;;;;;;;22.17;32.34;97734.50;4806925;29;1986;-80
2022/07/30 11:33:24;;;;;;;;;;;;;;;21.89;32.98;97739.03;4806697;29;968;-80
2022/07/30 11:36:18;;;;;;;;;;;;;;;22.08;32.79;97737.22;4806798;29;1126;-79
2022/07/30 11:38:50;;;;;;;;;;;;;;;22.10;32.69;97737.53;4807032;29;1036;-80
2022/07/30 11:41:15;;;;;;;;;;;;;;;21.97;33.05;97734.75;4769895;30;1049;-79
2022/07/30 11:43:41;;;;;;;;;;;;;;;22.00;32.82;97738.69;4770823;30;977;-79
2022/07/30 11:46:10;;;;;;;;;;;;;;;22.08;32.61;97725.88;4781614;29;952;-79
2022/07/30 11:48:35;;;;;;;;;;;;;;;22.07;32.91;97729.94;4806686;29;1028;-79
2022/07/30 11:51:01;;;;;;;;;;;;;;;21.93;33.07;97730.44;4806788;29;1981;-80
2022/07/30 11:53:26;;;;;;;;;;;;;;;22.24;32.67;97734.28;4818903;29;1002;-79
2022/07/30 11:55:56;;;;;;;;;;;;;;;21.92;33.13;97717.53;4809968;29;971;-79
2022/07/30 11:58:25;;;;;;;;;;;;;;;22.14;32.92;97737.47;4806355;29;1226;-79
2022/07/30 12:00:51;;;;;;;;;;;;;;;22.04;32.99;97728.03;4788553;30;954;-79
2022/07/30 12:03:17;;;;;;;;;;;;;;;21.94;33.28;97726.34;4804346;29;987;-80
2022/07/30 12:05:42;;;;;;;;;;;;;;;21.90;33.33;97734.16;4806391;29;1015;-79
2022/07/30 12:08:08;;;;;;;;;;;;;;;22.02;32.88;97728.50;4791182;29;1005;-79
2022/07/30 12:10:34;;;;;;;;;;;;;;;22.17;32.57;97740.16;4770765;30;1912;-79
2022/07/30 12:13:07;;;;;;;;;;;;;;;22.01;33.10;97737.44;4752784;30;911;-78
2022/07/30 12:15:33;;;;;;;;;;;;;;;21.92;33.28;97740.19;4794488;29;990;-80
2022/07/30 12:18:00;;;;;;;;;;;;;;;22.23;32.63;97731.91;4806437;29;946;-79
2022/07/30 12:20:25;;;;;;;;;;;;;;;21.99;33.06;97728.59;4806407;29;956;-80
2022/07/30 12:22:51;;;;;;;;;;;;;;;22.16;32.72;97732.91;4788257;29;892;-80
2022/07/30 12:25:16;;;;;;;;;;;;;;;22.14;32.99;97737.47;4769895;30;1256;-79
2022/07/30 12:27:46;;;;;;;;;;;;;;;22.18;32.93;97719.09;4770153;30;952;-80
2022/07/30 12:30:12;;;;;;;;;;;;;;;22.08;32.98;97723.06;4769523;30;1908;-79
2022/07/30 12:32:37;;;;;;;;;;;;;;;21.91;33.22;97715.91;4770420;30;1330;-80
2022/07/30 12:35:03;;;;;;;;;;;;;;;22.04;33.03;97708.22;4728268;30;1256;-79
2022/07/30 12:37:28;;;;;;;;;;;;;;;22.08;32.84;97703.22;4681261;30;1170;-80
2022/07/30 12:40:03;;;;;;;;;;;;;;;21.94;33.07;97704.47;4719745;30;954;-79
2022/07/30 12:42:29;;;;;;;;;;;;;;;21.96;33.32;97713.28;4735945;30;978;-80
2022/07/30 12:44:55;;;;;;;;;;;;;;;22.27;32.42;97710.69;4723201;30;1045;-79
2022/07/30 12:47:24;;;;;;;;;;;;;;;22.17;32.57;97708.22;4749907;30;1009;-80
2022/07/30 12:49:53;;;;;;;;;;;;;;;22.18;32.95;97713.44;4738083;30;1903;-80
2022/07/30 12:52:19;;;;;;;;;;;;;;;22.25;32.52;97701.06;4738134;30;947;-80
2022/07/30 12:54:54;;;;;;;;;;;;;;;22.19;32.99;97706.50;4723183;30;942;-80
2022/07/30 12:57:20;;;;;;;;;;;;;;;22.05;33.22;97696.41;4736905;30;1008;-79
2022/07/30 12:59:45;;;;;;;;;;;;;;;22.03;33.21;97692.47;4723835;30;1017;-79
2022/07/30 13:02:11;;;;;;;;;;;;;;;22.20;33.00;97698.81;4769891;30;1023;-79
2022/07/30 13:04:48;;;;;;;;;;;;;;;21.98;33.03;97698.69;4773778;30;904;-80
2022/07/30 13:07:15;;;;;;;;;;;;;;;21.90;33.42;97691.66;4826843;29;928;-80
2022/07/30 13:09:41;;;;;;;;;;;;;;;21.96;32.87;97692.69;4827680;29;1899;-80
2022/07/30 13:12:10;;;;;;;;;;;;;;;22.21;32.41;97683.38;4827330;29;1022;-79